sensor_id;sensor_type;location;lat;lon;timestamp;pressure;altitude;pressure_sealevel;temperature;humidity
29063;BME280;71206;48.564;-123.458;2024-02-23T00:00:43;102045.52;;;15.39;57.78
29063;BME280;71206;48.564;-123.458;2024-02-23T00:03:10;102042.57;;;16.04;57.66
29063;BME280;71206;48.564;-123.458;2024-02-23T00:05:41;102044.75;;;16.05;57.80
29063;BME280;71206;48.564;-123.458;2024-02-23T00:07:58;102043.47;;;16.05;57.85
29063;BME280;71206;48.564;-123.458;2024-02-23T00:10:23;102045.07;;;15.66;59.40
29063;BME280;71206;48.564;-123.458;2024-02-23T00:12:48;102038.24;;;16.21;57.08
29063;BME280;71206;48.564;-123.458;2024-02-23T00:15:13;102032.47;;;17.45;51.59
29063;BME280;71206;48.564;-123.458;2024-02-23T00:17:39;102031.96;;;15.59;54.67
29063;BME280;71206;48.564;-123.458;2024-02-23T00:20:04;102034.04;;;14.09;62.38
29063;BME280;71206;48.564;-123.458;2024-02-23T00:22:28;102035.86;;;13.62;70.79
29063;BME280;71206;48.564;-123.458;2024-02-23T00:24:54;102036.43;;;12.68;85.20
29063;BME280;71206;48.564;-123.458;2024-02-23T00:27:19;102038.91;;;11.97;100.00
29063;BME280;71206;48.564;-123.458;2024-02-23T00:29:44;102033.83;;;12.92;98.10
29063;BME280;71206;48.564;-123.458;2024-02-23T00:32:13;102034.78;;;11.90;100.00
29063;BME280;71206;48.564;-123.458;2024-02-23T00:34:34;102033.17;;;12.16;100.00
29063;BME280;71206;48.564;-123.458;2024-02-23T00:37:00;102039.79;;;11.53;100.00
29063;BME280;71206;48.564;-123.458;2024-02-23T00:39:25;102035.48;;;12.27;100.00
29063;BME280;71206;48.564;-123.458;2024-02-23T00:41:50;102035.22;;;12.64;100.00
29063;BME280;71206;48.564;-123.458;2024-02-23T00:44:15;102036.21;;;12.09;100.00
29063;BME280;71206;48.564;-123.458;2024-02-23T00:46:40;102043.33;;;11.69;100.00
29063;BME280;71206;48.564;-123.458;2024-02-23T00:49:06;102046.90;;;11.43;100.00
29063;BME280;71206;48.564;-123.458;2024-02-23T00:51:30;102034.54;;;14.38;86.71
29063;BME280;71206;48.564;-123.458;2024-02-23T00:53:55;102032.23;;;14.85;78.59
29063;BME280;71206;48.564;-123.458;2024-02-23T00:56:21;102034.27;;;13.86;82.80
29063;BME280;71206;48.564;-123.458;2024-02-23T00:58:47;102041.68;;;11.39;100.00
29063;BME280;71206;48.564;-123.458;2024-02-23T01:01:12;102043.69;;;10.58;100.00
29063;BME280;71206;48.564;-123.458;2024-02-23T01:03:37;102045.74;;;10.34;100.00
29063;BME280;71206;48.564;-123.458;2024-02-23T01:06:01;102051.45;;;10.31;100.00
29063;BME280;71206;48.564;-123.458;2024-02-23T01:08:27;102049.62;;;10.06;100.00
29063;BME280;71206;48.564;-123.458;2024-02-23T01:10:52;102046.06;;;10.57;100.00
29063;BME280;71206;48.564;-123.458;2024-02-23T01:13:20;102033.97;;;12.94;100.00
29063;BME280;71206;48.564;-123.458;2024-02-23T01:15:43;102032.94;;;13.80;92.16
29063;BME280;71206;48.564;-123.458;2024-02-23T01:18:07;102031.73;;;13.54;87.91
29063;BME280;71206;48.564;-123.458;2024-02-23T01:20:33;102035.39;;;14.31;80.96
29063;BME280;71206;48.564;-123.458;2024-02-23T01:22:58;102035.08;;;14.89;75.85
29063;BME280;71206;48.564;-123.458;2024-02-23T01:25:23;102040.42;;;13.96;78.78
29063;BME280;71206;48.564;-123.458;2024-02-23T01:27:48;102038.01;;;14.46;75.38
29063;BME280;71206;48.564;-123.458;2024-02-23T01:30:13;102040.55;;;14.72;72.92
29063;BME280;71206;48.564;-123.458;2024-02-23T01:32:39;102040.56;;;14.83;70.69
29063;BME280;71206;48.564;-123.458;2024-02-23T01:35:04;102043.16;;;15.17;68.83
29063;BME280;71206;48.564;-123.458;2024-02-23T01:37:28;102043.48;;;15.09;69.16
29063;BME280;71206;48.564;-123.458;2024-02-23T01:39:54;102044.74;;;14.71;69.47
29063;BME280;71206;48.564;-123.458;2024-02-23T01:42:21;102045.85;;;14.74;70.03
29063;BME280;71206;48.564;-123.458;2024-02-23T01:44:44;102045.69;;;14.65;69.72
29063;BME280;71206;48.564;-123.458;2024-02-23T01:47:09;102045.64;;;15.18;67.01
29063;BME280;71206;48.564;-123.458;2024-02-23T01:49:35;102045.46;;;14.85;67.11
29063;BME280;71206;48.564;-123.458;2024-02-23T01:52:01;102051.46;;;14.29;71.05
29063;BME280;71206;48.564;-123.458;2024-02-23T01:54:28;102048.46;;;13.80;73.67
29063;BME280;71206;48.564;-123.458;2024-02-23T01:56:53;102048.36;;;13.92;72.88
29063;BME280;71206;48.564;-123.458;2024-02-23T01:59:16;102040.37;;;14.79;68.26
29063;BME280;71206;48.564;-123.458;2024-02-23T02:01:43;102043.50;;;14.49;66.94
29063;BME280;71206;48.564;-123.458;2024-02-23T02:04:06;102050.52;;;14.40;67.33
29063;BME280;71206;48.564;-123.458;2024-02-23T02:06:31;102052.26;;;14.49;67.63
29063;BME280;71206;48.564;-123.458;2024-02-23T02:08:59;102056.56;;;14.27;68.39
29063;BME280;71206;48.564;-123.458;2024-02-23T02:11:22;102058.59;;;14.42;68.71
29063;BME280;71206;48.564;-123.458;2024-02-23T02:13:47;102061.34;;;14.13;67.59
29063;BME280;71206;48.564;-123.458;2024-02-23T02:16:17;102060.85;;;13.96;66.67
29063;BME280;71206;48.564;-123.458;2024-02-23T02:18:37;102057.37;;;13.89;68.27
29063;BME280;71206;48.564;-123.458;2024-02-23T02:21:03;102061.16;;;14.40;64.68
29063;BME280;71206;48.564;-123.458;2024-02-23T02:23:30;102060.72;;;14.12;67.26
29063;BME280;71206;48.564;-123.458;2024-02-23T02:25:54;102061.03;;;14.31;65.88
29063;BME280;71206;48.564;-123.458;2024-02-23T02:28:19;102063.36;;;14.19;64.40
29063;BME280;71206;48.564;-123.458;2024-02-23T02:30:45;102068.33;;;13.95;64.88
29063;BME280;71206;48.564;-123.458;2024-02-23T02:33:11;102070.88;;;13.84;66.06
29063;BME280;71206;48.564;-123.458;2024-02-23T02:35:34;102074.98;;;13.59;66.17
29063;BME280;71206;48.564;-123.458;2024-02-23T02:37:59;102074.60;;;13.82;65.75
29063;BME280;71206;48.564;-123.458;2024-02-23T02:40:24;102074.71;;;13.83;65.80
29063;BME280;71206;48.564;-123.458;2024-02-23T02:42:50;102074.45;;;13.99;65.40
29063;BME280;71206;48.564;-123.458;2024-02-23T02:45:15;102075.65;;;13.80;65.04
29063;BME280;71206;48.564;-123.458;2024-02-23T02:47:43;102084.22;;;12.62;69.93
29063;BME280;71206;48.564;-123.458;2024-02-23T02:50:06;102077.73;;;13.47;66.88
29063;BME280;71206;48.564;-123.458;2024-02-23T02:52:35;102082.92;;;13.76;65.48
29063;BME280;71206;48.564;-123.458;2024-02-23T02:54:57;102084.57;;;13.53;65.81
29063;BME280;71206;48.564;-123.458;2024-02-23T02:57:21;102089.27;;;13.56;65.40
29063;BME280;71206;48.564;-123.458;2024-02-23T02:59:53;102092.51;;;13.35;65.75
29063;BME280;71206;48.564;-123.458;2024-02-23T03:02:12;102092.60;;;13.45;65.32
29063;BME280;71206;48.564;-123.458;2024-02-23T03:04:37;102093.96;;;13.63;64.03
29063;BME280;71206;48.564;-123.458;2024-02-23T03:07:03;102090.50;;;13.49;63.97
29063;BME280;71206;48.564;-123.458;2024-02-23T03:09:30;102087.90;;;13.47;63.97
29063;BME280;71206;48.564;-123.458;2024-02-23T03:11:52;102088.37;;;13.33;64.32
29063;BME280;71206;48.564;-123.458;2024-02-23T03:14:18;102089.20;;;13.76;64.35
29063;BME280;71206;48.564;-123.458;2024-02-23T03:16:43;102090.60;;;13.53;63.31
29063;BME280;71206;48.564;-123.458;2024-02-23T03:19:08;102090.16;;;13.52;62.63
29063;BME280;71206;48.564;-123.458;2024-02-23T03:21:34;102092.47;;;13.82;62.54
29063;BME280;71206;48.564;-123.458;2024-02-23T03:24:00;102091.91;;;13.31;63.04
29063;BME280;71206;48.564;-123.458;2024-02-23T03:26:25;102091.69;;;13.53;62.54
29063;BME280;71206;48.564;-123.458;2024-02-23T03:28:51;102093.81;;;13.08;63.33
29063;BME280;71206;48.564;-123.458;2024-02-23T03:31:17;102095.98;;;13.15;64.06
29063;BME280;71206;48.564;-123.458;2024-02-23T03:33:41;102096.25;;;13.18;64.07
29063;BME280;71206;48.564;-123.458;2024-02-23T03:36:07;102101.45;;;12.91;64.79
29063;BME280;71206;48.564;-123.458;2024-02-23T03:38:32;102103.28;;;12.90;64.67
29063;BME280;71206;48.564;-123.458;2024-02-23T03:40:57;102105.59;;;13.13;64.16
29063;BME280;71206;48.564;-123.458;2024-02-23T03:43:23;102108.91;;;12.93;64.16
29063;BME280;71206;48.564;-123.458;2024-02-23T03:45:48;102113.67;;;12.30;67.24
29063;BME280;71206;48.564;-123.458;2024-02-23T03:48:14;102119.24;;;12.76;66.06
29063;BME280;71206;48.564;-123.458;2024-02-23T03:50:44;102121.28;;;12.79;65.22
29063;BME280;71206;48.564;-123.458;2024-02-23T03:53:05;102125.04;;;12.83;65.15
29063;BME280;71206;48.564;-123.458;2024-02-23T03:55:35;102125.56;;;12.68;65.68
29063;BME280;71206;48.564;-123.458;2024-02-23T03:57:56;102127.70;;;12.94;63.57
29063;BME280;71206;48.564;-123.458;2024-02-23T04:00:21;102130.72;;;12.23;65.40
29063;BME280;71206;48.564;-123.458;2024-02-23T04:02:52;102130.37;;;12.74;64.47
29063;BME280;71206;48.564;-123.458;2024-02-23T04:05:12;102130.82;;;12.75;64.15
29063;BME280;71206;48.564;-123.458;2024-02-23T04:07:40;102127.29;;;12.81;63.50
29063;BME280;71206;48.564;-123.458;2024-02-23T04:10:09;102129.04;;;12.69;63.95
29063;BME280;71206;48.564;-123.458;2024-02-23T04:12:28;102132.08;;;12.67;63.73
29063;BME280;71206;48.564;-123.458;2024-02-23T04:14:53;102135.74;;;12.45;64.50
29063;BME280;71206;48.564;-123.458;2024-02-23T04:17:18;102138.00;;;12.67;65.32
29063;BME280;71206;48.564;-123.458;2024-02-23T04:19:45;102143.32;;;12.54;64.19
29063;BME280;71206;48.564;-123.458;2024-02-23T04:22:09;102145.08;;;12.50;63.93
29063;BME280;71206;48.564;-123.458;2024-02-23T04:24:36;102148.30;;;12.34;63.15
29063;BME280;71206;48.564;-123.458;2024-02-23T04:27:01;102151.69;;;12.40;63.22
29063;BME280;71206;48.564;-123.458;2024-02-23T04:29:28;102150.19;;;12.37;63.42
29063;BME280;71206;48.564;-123.458;2024-02-23T04:31:50;102142.84;;;12.33;63.30
29063;BME280;71206;48.564;-123.458;2024-02-23T04:34:16;102140.55;;;12.47;63.27
29063;BME280;71206;48.564;-123.458;2024-02-23T04:36:41;102138.90;;;12.26;63.37
29063;BME280;71206;48.564;-123.458;2024-02-23T04:39:06;102140.94;;;12.22;63.93
29063;BME280;71206;48.564;-123.458;2024-02-23T04:41:31;102141.31;;;12.16;65.13
29063;BME280;71206;48.564;-123.458;2024-02-23T04:43:58;102143.87;;;12.54;64.20
29063;BME280;71206;48.564;-123.458;2024-02-23T04:46:22;102145.24;;;12.48;64.37
29063;BME280;71206;48.564;-123.458;2024-02-23T04:48:48;102149.17;;;12.54;63.40
29063;BME280;71206;48.564;-123.458;2024-02-23T04:51:20;102151.14;;;12.20;64.91
29063;BME280;71206;48.564;-123.458;2024-02-23T04:53:39;102154.64;;;12.28;63.64
29063;BME280;71206;48.564;-123.458;2024-02-23T04:56:08;102154.77;;;12.36;64.04
29063;BME280;71206;48.564;-123.458;2024-02-23T04:58:29;102153.32;;;12.56;63.01
29063;BME280;71206;48.564;-123.458;2024-02-23T05:00:55;102157.21;;;12.20;64.07
29063;BME280;71206;48.564;-123.458;2024-02-23T05:03:20;102160.70;;;12.70;63.22
29063;BME280;71206;48.564;-123.458;2024-02-23T05:05:45;102160.46;;;12.64;63.05
29063;BME280;71206;48.564;-123.458;2024-02-23T05:08:11;102160.00;;;12.29;63.27
29063;BME280;71206;48.564;-123.458;2024-02-23T05:10:35;102163.39;;;12.39;63.08
29063;BME280;71206;48.564;-123.458;2024-02-23T05:13:02;102163.37;;;12.33;62.43
29063;BME280;71206;48.564;-123.458;2024-02-23T05:15:26;102164.39;;;12.19;63.41
29063;BME280;71206;48.564;-123.458;2024-02-23T05:17:51;102165.27;;;12.19;64.12
29063;BME280;71206;48.564;-123.458;2024-02-23T05:20:18;102173.42;;;10.07;74.37
29063;BME280;71206;48.564;-123.458;2024-02-23T05:22:42;102167.09;;;11.75;68.08
29063;BME280;71206;48.564;-123.458;2024-02-23T05:25:08;102168.57;;;11.74;65.81
29063;BME280;71206;48.564;-123.458;2024-02-23T05:27:33;102166.01;;;12.21;65.34
29063;BME280;71206;48.564;-123.458;2024-02-23T05:29:58;102168.99;;;12.13;64.52
29063;BME280;71206;48.564;-123.458;2024-02-23T05:32:23;102170.09;;;12.35;64.21
29063;BME280;71206;48.564;-123.458;2024-02-23T05:34:49;102167.30;;;12.26;63.38
29063;BME280;71206;48.564;-123.458;2024-02-23T05:37:14;102168.41;;;11.76;63.52
29063;BME280;71206;48.564;-123.458;2024-02-23T05:39:41;102168.56;;;11.97;63.67
29063;BME280;71206;48.564;-123.458;2024-02-23T05:42:05;102170.66;;;11.97;63.82
29063;BME280;71206;48.564;-123.458;2024-02-23T05:44:30;102168.32;;;11.81;63.42
29063;BME280;71206;48.564;-123.458;2024-02-23T05:47:02;102167.39;;;11.97;62.63
29063;BME280;71206;48.564;-123.458;2024-02-23T05:49:22;102167.68;;;12.12;62.73
29063;BME280;71206;48.564;-123.458;2024-02-23T05:51:45;102168.40;;;12.12;62.65
29063;BME280;71206;48.564;-123.458;2024-02-23T05:54:12;102173.70;;;11.99;62.70
29063;BME280;71206;48.564;-123.458;2024-02-23T05:56:36;102177.72;;;11.20;65.00
29063;BME280;71206;48.564;-123.458;2024-02-23T05:59:01;102174.64;;;11.40;66.00
29063;BME280;71206;48.564;-123.458;2024-02-23T06:01:27;102172.40;;;11.91;63.49
29063;BME280;71206;48.564;-123.458;2024-02-23T06:03:52;102172.80;;;12.19;62.79
29063;BME280;71206;48.564;-123.458;2024-02-23T06:06:18;102170.96;;;11.78;63.08
29063;BME280;71206;48.564;-123.458;2024-02-23T06:08:43;102170.26;;;11.45;62.99
29063;BME280;71206;48.564;-123.458;2024-02-23T06:11:10;102171.06;;;11.75;62.80
29063;BME280;71206;48.564;-123.458;2024-02-23T06:13:34;102174.55;;;11.90;62.05
29063;BME280;71206;48.564;-123.458;2024-02-23T06:15:59;102174.90;;;11.83;62.16
29063;BME280;71206;48.564;-123.458;2024-02-23T06:18:26;102174.39;;;11.92;61.61
29063;BME280;71206;48.564;-123.458;2024-02-23T06:20:51;102173.77;;;11.88;61.21
29063;BME280;71206;48.564;-123.458;2024-02-23T06:23:15;102176.32;;;11.68;61.34
29063;BME280;71206;48.564;-123.458;2024-02-23T06:25:40;102177.34;;;11.86;61.04
29063;BME280;71206;48.564;-123.458;2024-02-23T06:28:07;102177.31;;;11.79;61.24
29063;BME280;71206;48.564;-123.458;2024-02-23T06:30:30;102179.27;;;11.86;61.43
29063;BME280;71206;48.564;-123.458;2024-02-23T06:32:56;102179.79;;;11.45;62.82
29063;BME280;71206;48.564;-123.458;2024-02-23T06:35:21;102181.00;;;11.35;63.25
29063;BME280;71206;48.564;-123.458;2024-02-23T06:37:46;102184.91;;;11.06;65.62
29063;BME280;71206;48.564;-123.458;2024-02-23T06:40:12;102186.80;;;11.42;64.78
29063;BME280;71206;48.564;-123.458;2024-02-23T06:42:37;102181.33;;;11.44;62.83
29063;BME280;71206;48.564;-123.458;2024-02-23T06:45:03;102180.63;;;11.47;62.52
29063;BME280;71206;48.564;-123.458;2024-02-23T06:47:29;102182.63;;;11.74;62.33
29063;BME280;71206;48.564;-123.458;2024-02-23T06:49:55;102182.62;;;12.06;62.05
29063;BME280;71206;48.564;-123.458;2024-02-23T06:52:18;102184.60;;;11.70;61.38
29063;BME280;71206;48.564;-123.458;2024-02-23T06:54:44;102182.33;;;11.68;61.61
29063;BME280;71206;48.564;-123.458;2024-02-23T06:57:09;102184.89;;;11.50;62.12
29063;BME280;71206;48.564;-123.458;2024-02-23T06:59:36;102190.84;;;10.82;63.04
29063;BME280;71206;48.564;-123.458;2024-02-23T07:02:00;102196.54;;;11.06;63.47
29063;BME280;71206;48.564;-123.458;2024-02-23T07:04:35;102197.07;;;11.33;64.26
29063;BME280;71206;48.564;-123.458;2024-02-23T07:06:51;102197.14;;;11.47;62.28
29063;BME280;71206;48.564;-123.458;2024-02-23T07:09:17;102196.80;;;11.26;64.19
29063;BME280;71206;48.564;-123.458;2024-02-23T07:11:45;102197.19;;;11.35;63.63
29063;BME280;71206;48.564;-123.458;2024-02-23T07:14:06;102196.81;;;11.53;62.90
29063;BME280;71206;48.564;-123.458;2024-02-23T07:16:37;102195.03;;;11.18;63.12
29063;BME280;71206;48.564;-123.458;2024-02-23T07:18:57;102194.35;;;11.41;62.84
29063;BME280;71206;48.564;-123.458;2024-02-23T07:21:22;102191.91;;;11.25;62.72
29063;BME280;71206;48.564;-123.458;2024-02-23T07:23:48;102190.69;;;11.56;62.68
29063;BME280;71206;48.564;-123.458;2024-02-23T07:26:13;102185.67;;;11.43;62.22
29063;BME280;71206;48.564;-123.458;2024-02-23T07:28:46;102185.72;;;11.54;62.54
29063;BME280;71206;48.564;-123.458;2024-02-23T07:31:04;102186.53;;;11.28;63.10
29063;BME280;71206;48.564;-123.458;2024-02-23T07:33:31;102185.09;;;11.50;63.47
29063;BME280;71206;48.564;-123.458;2024-02-23T07:35:55;102187.75;;;11.54;63.79
29063;BME280;71206;48.564;-123.458;2024-02-23T07:38:20;102190.03;;;11.38;64.09
29063;BME280;71206;48.564;-123.458;2024-02-23T07:40:55;102191.09;;;11.16;64.37
29063;BME280;71206;48.564;-123.458;2024-02-23T07:43:11;102190.75;;;11.05;64.50
29063;BME280;71206;48.564;-123.458;2024-02-23T07:45:41;102188.14;;;11.30;63.06
29063;BME280;71206;48.564;-123.458;2024-02-23T07:48:01;102192.29;;;11.58;62.39
29063;BME280;71206;48.564;-123.458;2024-02-23T07:50:27;102193.61;;;11.23;61.94
29063;BME280;71206;48.564;-123.458;2024-02-23T07:52:52;102192.94;;;11.37;62.72
29063;BME280;71206;48.564;-123.458;2024-02-23T07:55:17;102195.41;;;11.63;61.98
29063;BME280;71206;48.564;-123.458;2024-02-23T07:57:44;102198.76;;;11.47;61.60
29063;BME280;71206;48.564;-123.458;2024-02-23T08:00:08;102202.58;;;11.30;62.08
29063;BME280;71206;48.564;-123.458;2024-02-23T08:02:33;102209.25;;;11.21;62.37
29063;BME280;71206;48.564;-123.458;2024-02-23T08:04:59;102211.57;;;11.38;62.74
29063;BME280;71206;48.564;-123.458;2024-02-23T08:07:24;102212.80;;;11.49;62.95
29063;BME280;71206;48.564;-123.458;2024-02-23T08:09:49;102212.01;;;11.32;63.31
29063;BME280;71206;48.564;-123.458;2024-02-23T08:12:15;102211.43;;;11.68;62.83
29063;BME280;71206;48.564;-123.458;2024-02-23T08:14:40;102212.20;;;11.55;63.06
29063;BME280;71206;48.564;-123.458;2024-02-23T08:17:07;102213.29;;;11.43;62.73
29063;BME280;71206;48.564;-123.458;2024-02-23T08:19:33;102224.90;;;8.86;81.01
29063;BME280;71206;48.564;-123.458;2024-02-23T08:21:56;102220.09;;;10.94;71.13
29063;BME280;71206;48.564;-123.458;2024-02-23T08:24:22;102219.35;;;11.05;69.04
29063;BME280;71206;48.564;-123.458;2024-02-23T08:26:46;102215.53;;;11.44;66.77
29063;BME280;71206;48.564;-123.458;2024-02-23T08:29:12;102215.09;;;11.64;65.43
29063;BME280;71206;48.564;-123.458;2024-02-23T08:31:37;102216.86;;;11.84;64.44
29063;BME280;71206;48.564;-123.458;2024-02-23T08:34:02;102209.93;;;11.63;64.07
29063;BME280;71206;48.564;-123.458;2024-02-23T08:36:28;102211.30;;;11.72;63.45
29063;BME280;71206;48.564;-123.458;2024-02-23T08:38:54;102212.32;;;12.02;63.14
29063;BME280;71206;48.564;-123.458;2024-02-23T08:41:18;102210.20;;;11.84;62.56
29063;BME280;71206;48.564;-123.458;2024-02-23T08:43:44;102207.87;;;11.94;62.40
29063;BME280;71206;48.564;-123.458;2024-02-23T08:46:09;102205.20;;;12.01;62.22
29063;BME280;71206;48.564;-123.458;2024-02-23T08:48:35;102205.84;;;11.62;63.34
29063;BME280;71206;48.564;-123.458;2024-02-23T08:51:01;102203.72;;;11.78;62.98
29063;BME280;71206;48.564;-123.458;2024-02-23T08:53:28;102200.03;;;11.92;63.79
29063;BME280;71206;48.564;-123.458;2024-02-23T08:55:52;102197.61;;;11.69;64.03
29063;BME280;71206;48.564;-123.458;2024-02-23T08:58:18;102194.74;;;11.80;63.52
29063;BME280;71206;48.564;-123.458;2024-02-23T09:00:43;102197.05;;;11.57;64.33
29063;BME280;71206;48.564;-123.458;2024-02-23T09:03:08;102199.66;;;11.51;64.91
29063;BME280;71206;48.564;-123.458;2024-02-23T09:05:33;102195.32;;;11.88;63.55
29063;BME280;71206;48.564;-123.458;2024-02-23T09:07:59;102191.85;;;11.75;62.83
29063;BME280;71206;48.564;-123.458;2024-02-23T09:10:24;102191.47;;;11.76;62.46
29063;BME280;71206;48.564;-123.458;2024-02-23T09:12:53;102193.76;;;11.63;63.16
29063;BME280;71206;48.564;-123.458;2024-02-23T09:15:15;102195.38;;;11.44;62.77
29063;BME280;71206;48.564;-123.458;2024-02-23T09:17:41;102192.64;;;11.36;63.12
29063;BME280;71206;48.564;-123.458;2024-02-23T09:20:07;102194.86;;;11.02;64.06
29063;BME280;71206;48.564;-123.458;2024-02-23T09:22:31;102194.90;;;11.51;63.11
29063;BME280;71206;48.564;-123.458;2024-02-23T09:25:01;102194.80;;;11.62;63.52
29063;BME280;71206;48.564;-123.458;2024-02-23T09:27:23;102193.18;;;11.44;63.24
29063;BME280;71206;48.564;-123.458;2024-02-23T09:29:47;102195.51;;;11.72;63.58
29063;BME280;71206;48.564;-123.458;2024-02-23T09:32:13;102193.49;;;11.55;64.25
29063;BME280;71206;48.564;-123.458;2024-02-23T09:34:39;102197.43;;;11.80;63.54
29063;BME280;71206;48.564;-123.458;2024-02-23T09:37:05;102202.21;;;11.42;63.04
29063;BME280;71206;48.564;-123.458;2024-02-23T09:39:31;102207.69;;;10.61;67.57
29063;BME280;71206;48.564;-123.458;2024-02-23T09:41:55;102211.87;;;11.00;70.84
29063;BME280;71206;48.564;-123.458;2024-02-23T09:44:22;102217.51;;;10.89;69.31
29063;BME280;71206;48.564;-123.458;2024-02-23T09:46:45;102230.21;;;8.69;87.99
29063;BME280;71206;48.564;-123.458;2024-02-23T09:49:12;102217.14;;;10.37;75.35
29063;BME280;71206;48.564;-123.458;2024-02-23T09:51:36;102213.34;;;10.99;70.94
29063;BME280;71206;48.564;-123.458;2024-02-23T09:54:02;102211.62;;;11.03;68.57
29063;BME280;71206;48.564;-123.458;2024-02-23T09:56:31;102211.48;;;11.07;67.41
29063;BME280;71206;48.564;-123.458;2024-02-23T09:58:54;102213.72;;;11.22;66.60
29063;BME280;71206;48.564;-123.458;2024-02-23T10:01:27;102212.73;;;11.65;65.89
29063;BME280;71206;48.564;-123.458;2024-02-23T10:03:42;102211.92;;;11.54;65.35
29063;BME280;71206;48.564;-123.458;2024-02-23T10:06:07;102208.79;;;11.66;65.02
29063;BME280;71206;48.564;-123.458;2024-02-23T10:08:33;102207.15;;;11.93;65.19
29063;BME280;71206;48.564;-123.458;2024-02-23T10:11:00;102207.15;;;12.04;64.85
29063;BME280;71206;48.564;-123.458;2024-02-23T10:13:32;102205.94;;;11.92;64.41
29063;BME280;71206;48.564;-123.458;2024-02-23T10:15:52;102202.76;;;11.98;64.26
29063;BME280;71206;48.564;-123.458;2024-02-23T10:18:14;102201.32;;;12.09;64.01
29063;BME280;71206;48.564;-123.458;2024-02-23T10:20:40;102199.26;;;12.18;63.95
29063;BME280;71206;48.564;-123.458;2024-02-23T10:23:07;102197.75;;;11.77;63.84
29063;BME280;71206;48.564;-123.458;2024-02-23T10:25:32;102192.76;;;12.35;63.61
29063;BME280;71206;48.564;-123.458;2024-02-23T10:27:56;102195.08;;;12.11;63.94
29063;BME280;71206;48.564;-123.458;2024-02-23T10:30:22;102194.59;;;12.38;64.00
29063;BME280;71206;48.564;-123.458;2024-02-23T10:32:46;102198.27;;;12.47;63.91
29063;BME280;71206;48.564;-123.458;2024-02-23T10:35:15;102198.85;;;12.41;64.04
29063;BME280;71206;48.564;-123.458;2024-02-23T10:37:37;102198.69;;;12.27;64.40
29063;BME280;71206;48.564;-123.458;2024-02-23T10:40:04;102199.19;;;12.28;64.52
29063;BME280;71206;48.564;-123.458;2024-02-23T10:42:33;102194.74;;;12.34;64.28
29063;BME280;71206;48.564;-123.458;2024-02-23T10:44:54;102191.77;;;12.27;63.67
29063;BME280;71206;48.564;-123.458;2024-02-23T10:47:20;102193.85;;;12.38;63.24
29063;BME280;71206;48.564;-123.458;2024-02-23T10:49:45;102191.60;;;12.45;63.19
29063;BME280;71206;48.564;-123.458;2024-02-23T10:52:10;102192.58;;;12.56;63.08
29063;BME280;71206;48.564;-123.458;2024-02-23T10:54:35;102191.97;;;12.32;63.46
29063;BME280;71206;48.564;-123.458;2024-02-23T10:57:00;102187.45;;;12.84;63.35
29063;BME280;71206;48.564;-123.458;2024-02-23T10:59:27;102187.07;;;12.62;63.74
29063;BME280;71206;48.564;-123.458;2024-02-23T11:01:52;102190.12;;;12.90;63.33
29063;BME280;71206;48.564;-123.458;2024-02-23T11:04:17;102190.25;;;12.78;63.64
29063;BME280;71206;48.564;-123.458;2024-02-23T11:06:50;102191.37;;;12.36;63.43
29063;BME280;71206;48.564;-123.458;2024-02-23T11:09:08;102195.23;;;12.58;63.69
29063;BME280;71206;48.564;-123.458;2024-02-23T11:11:33;102195.04;;;12.27;64.03
29063;BME280;71206;48.564;-123.458;2024-02-23T11:13:58;102195.69;;;12.22;64.43
29063;BME280;71206;48.564;-123.458;2024-02-23T11:16:26;102194.84;;;12.57;63.90
29063;BME280;71206;48.564;-123.458;2024-02-23T11:18:50;102191.77;;;12.40;63.88
29063;BME280;71206;48.564;-123.458;2024-02-23T11:21:14;102191.29;;;12.96;63.75
29063;BME280;71206;48.564;-123.458;2024-02-23T11:23:43;102189.48;;;12.55;63.40
29063;BME280;71206;48.564;-123.458;2024-02-23T11:26:06;102190.10;;;12.58;63.55
29063;BME280;71206;48.564;-123.458;2024-02-23T11:28:30;102189.45;;;12.64;63.42
29063;BME280;71206;48.564;-123.458;2024-02-23T11:30:55;102192.42;;;12.59;63.64
29063;BME280;71206;48.564;-123.458;2024-02-23T11:33:26;102194.41;;;12.59;63.83
29063;BME280;71206;48.564;-123.458;2024-02-23T11:35:47;102188.26;;;12.49;64.08
29063;BME280;71206;48.564;-123.458;2024-02-23T11:38:11;102186.74;;;12.86;64.73
29063;BME280;71206;48.564;-123.458;2024-02-23T11:40:37;102189.75;;;12.51;64.15
29063;BME280;71206;48.564;-123.458;2024-02-23T11:43:02;102191.07;;;12.96;64.10
29063;BME280;71206;48.564;-123.458;2024-02-23T11:45:29;102192.08;;;12.56;64.51
29063;BME280;71206;48.564;-123.458;2024-02-23T11:47:52;102194.30;;;12.63;64.32
29063;BME280;71206;48.564;-123.458;2024-02-23T11:50:18;102196.59;;;12.49;63.88
29063;BME280;71206;48.564;-123.458;2024-02-23T11:52:43;102196.60;;;12.50;64.08
29063;BME280;71206;48.564;-123.458;2024-02-23T11:55:08;102195.51;;;12.57;64.07
29063;BME280;71206;48.564;-123.458;2024-02-23T11:57:34;102197.01;;;12.88;63.88
29063;BME280;71206;48.564;-123.458;2024-02-23T12:00:05;102198.18;;;12.68;63.73
29063;BME280;71206;48.564;-123.458;2024-02-23T12:02:27;102196.59;;;12.71;63.79
29063;BME280;71206;48.564;-123.458;2024-02-23T12:04:49;102192.88;;;12.66;64.31
29063;BME280;71206;48.564;-123.458;2024-02-23T12:07:16;102189.48;;;13.00;65.02
29063;BME280;71206;48.564;-123.458;2024-02-23T12:09:41;102185.73;;;12.81;65.19